Time;durP1;ratioP1;P1;durP2;ratioP2;P2;SDS_P1;SDS_P2;PMS_P1;PMS_P2;Temp;Humidity;BMP_temperature;BMP_pressure;BME280_temperature;BME280_humidity;BME280_pressure;Samples;Min_cycle;Max_cycle;Signal;HPM_P1;HPM_P2
2021/06/04 00:00:43;;;;;;;9.82;8.68;;;21.80;99.90;;;;;;2064968;28;20057;-70
2021/06/04 00:01:44;;;;;;;9.30;8.38;;;21.80;99.90;;;;;;2065509;28;20073;-70
2021/06/04 00:02:45;;;;;;;10.00;9.10;;;21.80;99.90;;;;;;2065911;28;20026;-71
2021/06/04 00:03:46;;;;;;;10.75;9.85;;;21.80;99.90;;;;;;2064429;28;20041;-71
2021/06/04 00:04:47;;;;;;;9.27;8.48;;;21.80;99.90;;;;;;2064957;28;20075;-71
2021/06/04 00:05:51;;;;;;;8.55;7.45;;;21.80;99.90;;;;;;2062948;28;20084;-71
2021/06/04 00:06:52;;;;;;;10.13;8.80;;;21.80;99.90;;;;;;2064649;28;20026;-70
2021/06/04 00:07:53;;;;;;;9.70;8.90;;;21.80;99.90;;;;;;2063939;28;20053;-71
2021/06/04 00:08:54;;;;;;;11.38;9.23;;;21.80;99.90;;;;;;2064023;28;20037;-71
2021/06/04 00:09:55;;;;;;;9.15;8.30;;;21.70;99.90;;;;;;2064303;28;20058;-71
2021/06/04 00:10:59;;;;;;;8.75;8.05;;;21.70;99.90;;;;;;2063930;28;20030;-71
2021/06/04 00:12:01;;;;;;;10.00;9.10;;;21.70;99.90;;;;;;2064069;28;20628;-70
2021/06/04 00:13:18;;;;;;;10.02;9.02;;;21.80;99.90;;;;;;2063994;28;20089;-70
2021/06/04 00:14:41;;;;;;;8.68;7.97;;;21.70;99.90;;;;;;2071475;28;20065;-70
2021/06/04 00:15:42;;;;;;;9.23;8.48;;;21.70;99.90;;;;;;2068231;28;20018;-70
2021/06/04 00:16:46;;;;;;;9.90;9.00;;;21.70;99.90;;;;;;2063989;28;20065;-70
2021/06/04 00:17:46;;;;;;;9.80;8.85;;;21.70;99.90;;;;;;2064394;28;20356;-70
2021/06/04 00:18:49;;;;;;;11.75;10.55;;;21.70;99.90;;;;;;2056269;28;20050;-71
2021/06/04 00:19:50;;;;;;;8.20;7.50;;;21.70;99.90;;;;;;2059264;28;20482;-70
2021/06/04 00:20:51;;;;;;;8.40;7.70;;;21.60;99.90;;;;;;2064448;28;20521;-71
2021/06/04 00:21:57;;;;;;;10.25;9.27;;;21.70;99.90;;;;;;2063958;28;20470;-70
2021/06/04 00:22:57;;;;;;;9.98;9.07;;;21.70;99.90;;;;;;2057824;28;20102;-70
2021/06/04 00:24:00;;;;;;;11.82;9.25;;;21.70;99.90;;;;;;2064519;28;20023;-70
2021/06/04 00:25:01;;;;;;;10.57;9.55;;;21.70;99.90;;;;;;2064107;28;20073;-71
2021/06/04 00:26:03;;;;;;;9.40;8.60;;;21.70;99.90;;;;;;2063717;28;20068;-71
2021/06/04 00:27:05;;;;;;;11.32;8.45;;;21.60;99.90;;;;;;2063849;28;20390;-70
2021/06/04 00:28:06;;;;;;;11.20;9.52;;;21.60;99.90;;;;;;2064645;28;20015;-71
2021/06/04 00:29:06;;;;;;;9.93;9.02;;;21.60;99.90;;;;;;2070941;28;20110;-70
2021/06/04 00:30:08;;;;;;;9.65;8.85;;;21.60;99.90;;;;;;2072040;28;20022;-70
2021/06/04 00:31:10;;;;;;;10.02;9.13;;;21.60;99.90;;;;;;2060133;28;20027;-70
2021/06/04 00:32:12;;;;;;;8.27;7.60;;;21.60;99.90;;;;;;2071436;28;20072;-70
2021/06/04 00:33:13;;;;;;;9.85;8.88;;;21.60;99.90;;;;;;2071490;28;20025;-70
2021/06/04 00:34:14;;;;;;;8.57;7.88;;;21.60;99.90;;;;;;2064479;28;20101;-71
2021/06/04 00:35:16;;;;;;;9.50;8.70;;;21.60;99.90;;;;;;2064046;28;20023;-70
2021/06/04 00:36:17;;;;;;;8.60;7.80;;;21.60;99.90;;;;;;2064467;28;20023;-70
2021/06/04 00:37:19;;;;;;;9.55;8.75;;;21.60;99.90;;;;;;2064288;28;20062;-70
2021/06/04 00:38:20;;;;;;;9.27;8.38;;;21.60;99.90;;;;;;2064408;28;20030;-70
2021/06/04 00:39:24;;;;;;;9.60;8.77;;;21.50;99.90;;;;;;2063443;28;20023;-70
2021/06/04 00:40:31;;;;;;;8.30;7.60;;;21.50;99.90;;;;;;2064344;28;20030;-70
2021/06/04 00:41:38;;;;;;;8.82;8.02;;;21.50;99.90;;;;;;2064237;28;20114;-70
2021/06/04 00:42:39;;;;;;;9.77;8.98;;;21.50;99.90;;;;;;2063774;28;20030;-70
2021/06/04 00:43:40;;;;;;;8.95;8.15;;;21.50;99.90;;;;;;2064603;28;20074;-70
2021/06/04 00:44:40;;;;;;;8.75;8.05;;;21.50;99.90;;;;;;2064201;28;20394;-70
2021/06/04 00:45:46;;;;;;;8.90;8.10;;;21.50;99.90;;;;;;2064122;28;20026;-70
2021/06/04 00:46:46;;;;;;;8.65;7.53;;;21.50;99.90;;;;;;2064548;28;20394;-70
2021/06/04 00:47:47;;;;;;;8.40;7.70;;;21.50;99.90;;;;;;2061815;28;20023;-70
2021/06/04 00:48:48;;;;;;;9.63;8.73;;;21.50;99.90;;;;;;2064439;28;20030;-70
2021/06/04 00:49:49;;;;;;;8.30;7.60;;;21.50;99.90;;;;;;2057862;28;20031;-70
2021/06/04 00:51:14;;;;;;;9.40;8.63;;;21.50;99.90;;;;;;2060169;28;20125;-70
2021/06/04 00:52:21;;;;;;;9.68;8.63;;;21.40;99.90;;;;;;2063753;28;20023;-70
2021/06/04 00:53:25;;;;;;;8.88;8.18;;;21.40;99.90;;;;;;2064297;28;20018;-70
2021/06/04 00:54:27;;;;;;;8.98;8.18;;;21.40;99.90;;;;;;2064234;28;20030;-70
2021/06/04 00:55:28;;;;;;;8.30;7.50;;;21.40;99.90;;;;;;2063816;28;20034;-70
2021/06/04 00:56:30;;;;;;;9.52;8.63;;;21.40;99.90;;;;;;2071815;28;20105;-70
2021/06/04 00:57:32;;;;;;;10.23;9.23;;;21.40;99.90;;;;;;2070546;28;20030;-70
2021/06/04 00:58:41;;;;;;;8.70;7.93;;;21.40;99.90;;;;;;2064241;28;20029;-70
2021/06/04 00:59:43;;;;;;;9.65;8.60;;;21.40;99.90;;;;;;2070488;28;20026;-70
2021/06/04 01:00:49;;;;;;;8.10;7.30;;;21.30;99.90;;;;;;2064366;28;20034;-70
2021/06/04 01:01:51;;;;;;;9.30;8.40;;;21.30;99.90;;;;;;2064098;28;20076;-70
2021/06/04 01:02:53;;;;;;;8.73;7.88;;;21.30;99.90;;;;;;2063741;28;20065;-70
2021/06/04 01:04:02;;;;;;;9.32;8.35;;;21.30;99.90;;;;;;2064046;28;20497;-70
2021/06/04 01:05:06;;;;;;;9.45;8.65;;;21.30;99.90;;;;;;2064106;28;20120;-70
2021/06/04 01:06:19;;;;;;;9.38;8.55;;;21.30;99.90;;;;;;2063252;28;20026;-70
2021/06/04 01:07:41;;;;;;;9.07;8.27;;;21.30;99.90;;;;;;2063529;28;20041;-70
2021/06/04 01:09:18;;;;;;;10.20;9.30;;;21.30;99.90;;;;;;2057792;28;20038;-70
2021/06/04 01:10:21;;;;;;;9.48;8.57;;;21.30;99.90;;;;;;2063581;28;20041;-70
2021/06/04 01:11:54;;;;;;;9.20;8.50;;;21.20;99.90;;;;;;2064127;28;20417;-70
2021/06/04 01:13:01;;;;;;;7.85;7.10;;;21.20;99.90;;;;;;2063824;28;20033;-70
2021/06/04 01:14:18;;;;;;;8.48;7.68;;;21.20;99.90;;;;;;2063948;28;20466;-70
2021/06/04 01:15:52;;;;;;;10.90;9.80;;;21.20;99.90;;;;;;2064302;28;20018;-70
2021/06/04 01:17:25;;;;;;;9.20;8.43;;;21.20;99.90;;;;;;2060496;28;20086;-70
2021/06/04 01:18:46;;;;;;;9.20;8.30;;;21.10;99.90;;;;;;2063745;28;20014;-70
2021/06/04 01:20:18;;;;;;;10.50;9.52;;;21.10;99.90;;;;;;2064266;28;20029;-70
2021/06/04 01:21:33;;;;;;;12.07;10.88;;;21.10;99.90;;;;;;2063955;28;20664;-70
2021/06/04 01:22:51;;;;;;;11.05;10.05;;;21.10;99.90;;;;;;2062780;28;20084;-70
2021/06/04 01:24:10;;;;;;;11.68;10.57;;;21.10;99.90;;;;;;2061594;28;20022;-70
2021/06/04 01:25:11;;;;;;;11.63;9.07;;;21.10;99.90;;;;;;2056219;28;20029;-70
2021/06/04 01:26:20;;;;;;;9.23;8.32;;;21.10;99.90;;;;;;2058025;28;20034;-71
2021/06/04 01:27:36;;;;;;;9.75;8.85;;;21.10;99.90;;;;;;2071595;28;20029;-71
2021/06/04 01:28:43;;;;;;;11.25;10.35;;;21.10;99.90;;;;;;2076154;28;20409;-70
2021/06/04 01:29:52;;;;;;;10.50;9.50;;;21.10;99.90;;;;;;2070793;28;20124;-70
2021/06/04 01:31:13;;;;;;;10.23;9.32;;;21.10;99.90;;;;;;2063849;28;20024;-71
2021/06/04 01:32:20;;;;;;;10.40;9.50;;;21.10;99.90;;;;;;2071101;28;20018;-70
2021/06/04 01:33:26;;;;;;;10.43;9.40;;;21.10;99.90;;;;;;2070502;28;20096;-71
2021/06/04 01:34:32;;;;;;;12.98;11.68;;;21.10;99.90;;;;;;2063639;28;20030;-71
2021/06/04 01:35:41;;;;;;;12.10;10.88;;;21.10;99.90;;;;;;2064078;28;20483;-70
2021/06/04 01:36:52;;;;;;;11.52;9.85;;;21.10;99.90;;;;;;2064253;28;20497;-70
2021/06/04 01:37:56;;;;;;;10.60;9.65;;;21.10;99.90;;;;;;2075620;28;20112;-70
2021/06/04 01:39:00;;;;;;;10.93;9.93;;;21.10;99.90;;;;;;2079071;28;20017;-70
2021/06/04 01:40:16;;;;;;;11.93;10.93;;;21.10;99.90;;;;;;2063846;28;20529;-70
2021/06/04 01:41:20;;;;;;;10.18;9.18;;;21.10;99.90;;;;;;2060048;28;20125;-70
2021/06/04 01:42:29;;;;;;;11.05;10.02;;;21.10;99.90;;;;;;2056539;28;20031;-70
2021/06/04 01:43:37;;;;;;;10.65;9.65;;;21.10;99.90;;;;;;2064001;28;20042;-70
2021/06/04 01:44:51;;;;;;;10.10;9.30;;;21.10;99.90;;;;;;2064137;28;20053;-70
2021/06/04 01:46:00;;;;;;;11.45;10.45;;;21.10;99.90;;;;;;2063903;28;20112;-70
2021/06/04 01:47:07;;;;;;;12.15;11.00;;;21.10;99.90;;;;;;2063505;28;20026;-70
2021/06/04 01:48:12;;;;;;;11.48;10.48;;;21.10;99.90;;;;;;2063200;28;20034;-70
2021/06/04 01:49:20;;;;;;;10.65;9.65;;;21.10;99.90;;;;;;2064044;28;20030;-70
2021/06/04 01:50:35;;;;;;;12.50;11.30;;;21.00;99.90;;;;;;2063766;28;20110;-71
2021/06/04 01:51:46;;;;;;;11.90;10.80;;;21.00;99.90;;;;;;2063528;28;20034;-71
2021/06/04 01:52:48;;;;;;;11.48;10.40;;;21.10;99.90;;;;;;2063395;28;20510;-70
2021/06/04 01:53:55;;;;;;;13.70;10.07;;;21.00;99.90;;;;;;2063652;28;20432;-71
2021/06/04 01:55:14;;;;;;;10.43;9.43;;;21.00;99.90;;;;;;2063486;28;20026;-70
2021/06/04 01:56:19;;;;;;;12.80;11.60;;;21.00;99.90;;;;;;2056245;28;20057;-70
2021/06/04 01:57:28;;;;;;;13.13;11.88;;;21.00;99.90;;;;;;2053062;28;20035;-71
2021/06/04 01:58:37;;;;;;;9.65;8.75;;;21.00;99.90;;;;;;2061379;28;20035;-71
2021/06/04 01:59:41;;;;;;;10.18;9.27;;;21.00;99.90;;;;;;2063526;28;20034;-70
2021/06/04 02:00:53;;;;;;;11.98;10.88;;;21.00;99.90;;;;;;2063861;28;20018;-71
2021/06/04 02:01:54;;;;;;;11.00;10.07;;;21.00;99.90;;;;;;2061747;28;20507;-71
2021/06/04 02:02:56;;;;;;;12.98;11.77;;;21.00;99.90;;;;;;2064597;28;20446;-71
2021/06/04 02:03:58;;;;;;;12.88;11.77;;;21.00;99.90;;;;;;2064731;28;20705;-70
2021/06/04 02:04:58;;;;;;;10.80;9.90;;;21.00;99.90;;;;;;2065198;28;20021;-70
2021/06/04 02:05:59;;;;;;;9.68;8.77;;;21.00;99.90;;;;;;2066124;28;20030;-70
2021/06/04 02:07:01;;;;;;;11.30;10.30;;;21.00;99.90;;;;;;2069075;28;20030;-71
2021/06/04 02:08:02;;;;;;;11.88;10.77;;;21.00;99.90;;;;;;2065169;28;20022;-71
2021/06/04 02:09:08;;;;;;;10.10;9.20;;;21.00;99.90;;;;;;2072414;28;20085;-71
2021/06/04 02:10:13;;;;;;;10.65;9.65;;;21.00;99.90;;;;;;2071800;28;20413;-70
2021/06/04 02:11:18;;;;;;;12.07;10.98;;;21.00;99.90;;;;;;2064637;28;20109;-70
2021/06/04 02:12:20;;;;;;;11.75;10.55;;;21.00;99.90;;;;;;2064612;28;20015;-70
2021/06/04 02:13:22;;;;;;;12.07;10.77;;;21.00;99.90;;;;;;2075238;28;20101;-70
2021/06/04 02:14:29;;;;;;;12.75;11.52;;;21.00;99.90;;;;;;2079930;28;20033;-70
2021/06/04 02:15:33;;;;;;;11.80;10.80;;;21.00;99.90;;;;;;2065282;28;20299;-70
2021/06/04 02:16:55;;;;;;;13.75;12.35;;;21.00;99.90;;;;;;2065091;28;20022;-70
2021/06/04 02:18:05;;;;;;;13.30;12.10;;;21.00;99.90;;;;;;2065361;28;20474;-70
2021/06/04 02:19:12;;;;;;;;;;;20.90;99.90;;;;;;2065726;28;20102;-70
2021/06/04 02:20:47;;;;;;;12.25;11.13;;;20.90;99.90;;;;;;2065014;28;19906;-70
2021/06/04 02:21:56;;;;;;;13.32;12.13;;;20.90;99.90;;;;;;2065037;28;20083;-70
2021/06/04 02:23:01;;;;;;;12.88;11.68;;;20.90;99.90;;;;;;2064861;28;20038;-70
2021/06/04 02:24:14;;;;;;;14.70;13.35;;;20.90;99.90;;;;;;2064942;28;20080;-70
2021/06/04 02:25:38;;;;;;;13.65;12.35;;;20.90;99.90;;;;;;2065190;28;20052;-70
2021/06/04 02:26:45;;;;;;;14.40;13.00;;;20.90;99.90;;;;;;2064423;28;20489;-70
2021/06/04 02:27:52;;;;;;;17.38;15.65;;;20.90;99.90;;;;;;2064633;28;20031;-70
2021/06/04 02:29:05;;;;;;;11.55;10.45;;;20.90;99.90;;;;;;2065069;28;20038;-70
2021/06/04 02:30:08;;;;;;;10.98;9.85;;;20.90;99.90;;;;;;2065437;28;20458;-71
2021/06/04 02:31:22;;;;;;;11.55;10.48;;;20.90;99.90;;;;;;2064233;28;20030;-71
2021/06/04 02:32:28;;;;;;;13.65;12.38;;;20.90;99.90;;;;;;2049708;28;20057;-71
2021/06/04 02:34:02;;;;;;;12.10;11.00;;;20.90;99.90;;;;;;2056386;28;20023;-71
2021/06/04 02:35:32;;;;;;;11.57;10.55;;;20.90;99.90;;;;;;2064194;28;20490;-71
2021/06/04 02:36:46;;;;;;;11.27;10.35;;;20.80;99.90;;;;;;2065268;28;20030;-70
2021/06/04 02:37:53;;;;;;;11.52;10.48;;;20.80;99.90;;;;;;2064276;28;20027;-70
2021/06/04 02:39:01;;;;;;;13.32;12.13;;;20.80;99.90;;;;;;2064592;28;20042;-70
2021/06/04 02:40:14;;;;;;;12.13;10.90;;;20.80;99.90;;;;;;2066807;28;20165;-70
2021/06/04 02:41:34;;;;;;;13.68;12.40;;;20.80;99.90;;;;;;2066545;28;20033;-70
2021/06/04 02:43:04;;;;;;;14.05;12.40;;;20.80;99.90;;;;;;2066636;28;20026;-70
2021/06/04 02:44:12;;;;;;;13.95;12.50;;;20.80;99.90;;;;;;2066547;28;20064;-70
2021/06/04 02:45:27;;;;;;;14.30;12.95;;;20.80;99.90;;;;;;2066597;28;20033;-71
2021/06/04 02:46:33;;;;;;;12.80;11.50;;;20.80;99.90;;;;;;2066881;28;20489;-70
2021/06/04 02:47:39;;;;;;;13.65;12.23;;;20.80;99.90;;;;;;2066561;28;20041;-70
2021/06/04 02:48:43;;;;;;;11.93;10.73;;;20.80;99.90;;;;;;2066867;28;20113;-70
2021/06/04 02:49:44;;;;;;;13.85;12.45;;;20.80;99.90;;;;;;2066625;28;20096;-70
2021/06/04 02:50:55;;;;;;;15.40;13.85;;;20.80;99.90;;;;;;2066893;28;20501;-70
2021/06/04 02:52:08;;;;;;;;;;;20.80;99.90;;;;;;2066532;28;20030;-70
2021/06/04 02:53:33;;;;;;;11.77;10.63;;;20.70;99.90;;;;;;2066080;28;19905;-71
2021/06/04 02:54:35;;;;;;;14.38;13.07;;;20.70;99.90;;;;;;2066484;28;20446;-71
2021/06/04 02:55:36;;;;;;;13.35;12.05;;;20.70;99.90;;;;;;2066240;28;20021;-71
2021/06/04 02:56:46;;;;;;;13.90;12.68;;;20.70;99.90;;;;;;2074164;28;20029;-71
2021/06/04 02:57:46;;;;;;;14.32;13.02;;;20.70;99.90;;;;;;2079858;28;20028;-71
2021/06/04 02:59:10;;;;;;;13.25;12.02;;;20.70;99.90;;;;;;2066784;28;20026;-71
2021/06/04 03:00:24;;;;;;;14.80;12.45;;;20.80;99.90;;;;;;2061643;28;20097;-71
2021/06/04 03:01:27;;;;;;;13.20;12.00;;;20.80;99.90;;;;;;2066723;28;20033;-71
2021/06/04 03:02:33;;;;;;;14.45;13.05;;;20.70;99.90;;;;;;2066088;28;20029;-71
2021/06/04 03:03:35;;;;;;;13.75;12.52;;;20.70;99.90;;;;;;2066546;28;20033;-71
2021/06/04 03:04:41;;;;;;;14.23;12.82;;;20.70;99.90;;;;;;2066433;28;20034;-71
2021/06/04 03:05:42;;;;;;;12.20;11.07;;;20.80;99.90;;;;;;2066082;28;20359;-71
2021/06/04 03:06:48;;;;;;;11.80;10.60;;;20.70;99.90;;;;;;2066443;28;20053;-71
2021/06/04 03:07:49;;;;;;;13.88;12.68;;;20.80;99.90;;;;;;2066853;28;20057;-71
2021/06/04 03:08:50;;;;;;;14.30;12.80;;;20.70;99.90;;;;;;2066324;28;20489;-71
2021/06/04 03:09:52;;;;;;;14.13;12.73;;;20.80;99.90;;;;;;2073693;28;20461;-71
2021/06/04 03:10:55;;;;;;;11.18;10.18;;;20.80;99.90;;;;;;2073758;28;20029;-71
2021/06/04 03:12:01;;;;;;;17.05;14.98;;;20.80;99.90;;;;;;2066619;28;20030;-71
2021/06/04 03:13:05;;;;;;;15.85;13.35;;;20.80;99.90;;;;;;2066199;28;20401;-71
2021/06/04 03:14:07;;;;;;;12.10;11.00;;;20.80;99.90;;;;;;2066599;28;20030;-71
2021/06/04 03:15:30;;;;;;;12.52;11.52;;;20.80;99.90;;;;;;2066338;28;20030;-71
2021/06/04 03:16:31;;;;;;;15.70;14.20;;;20.80;99.90;;;;;;2055192;28;20426;-71
2021/06/04 03:17:34;;;;;;;17.35;15.85;;;20.80;99.90;;;;;;2065716;28;20070;-71
2021/06/04 03:18:39;;;;;;;16.73;15.18;;;20.80;99.90;;;;;;2066229;28;20033;-71
2021/06/04 03:19:40;;;;;;;18.60;16.90;;;20.80;99.90;;;;;;2066420;28;20037;-71
2021/06/04 03:20:44;;;;;;;17.08;15.43;;;20.80;99.90;;;;;;2065674;28;20057;-71
2021/06/04 03:21:50;;;;;;;16.70;15.13;;;20.80;99.90;;;;;;2065740;28;20022;-71
2021/06/04 03:22:50;;;;;;;15.18;13.77;;;20.80;99.90;;;;;;2065494;28;20025;-71
2021/06/04 03:23:51;;;;;;;15.27;13.82;;;20.80;99.90;;;;;;2066587;28;20026;-71
2021/06/04 03:24:54;;;;;;;16.65;14.95;;;20.80;99.90;;;;;;2066328;28;20054;-71
2021/06/04 03:25:55;;;;;;;15.15;13.75;;;20.80;99.90;;;;;;2073823;28;20018;-71
2021/06/04 03:26:57;;;;;;;15.10;13.70;;;20.80;99.90;;;;;;2073757;28;20053;-71
2021/06/04 03:27:57;;;;;;;14.85;13.43;;;20.80;99.90;;;;;;2066452;28;20359;-71
2021/06/04 03:29:01;;;;;;;15.10;13.70;;;20.80;99.90;;;;;;2065964;28;20045;-71
2021/06/04 03:30:07;;;;;;;15.52;14.07;;;20.80;99.90;;;;;;2066372;28;20022;-71
2021/06/04 03:31:10;;;;;;;15.45;14.05;;;20.80;99.90;;;;;;2066128;28;20018;-71
2021/06/04 03:32:13;;;;;;;16.80;15.25;;;20.80;99.90;;;;;;2073608;28;20068;-71
2021/06/04 03:33:17;;;;;;;13.77;12.57;;;20.80;99.90;;;;;;2073405;28;20022;-71
2021/06/04 03:34:19;;;;;;;13.63;12.43;;;20.80;99.90;;;;;;2072030;28;20037;-71
2021/06/04 03:35:21;;;;;;;12.82;11.73;;;20.80;99.90;;;;;;2066200;28;20034;-71
2021/06/04 03:36:27;;;;;;;15.18;13.88;;;20.80;99.90;;;;;;2066376;28;20034;-71
2021/06/04 03:37:27;;;;;;;15.40;14.00;;;20.80;99.90;;;;;;2065629;28;20049;-71
2021/06/04 03:38:28;;;;;;;15.32;13.77;;;20.80;99.90;;;;;;2065818;28;20018;-71
2021/06/04 03:39:33;;;;;;;16.13;13.50;;;20.80;99.90;;;;;;2066159;28;20019;-71
2021/06/04 03:40:34;;;;;;;15.35;13.90;;;20.80;99.90;;;;;;2066054;28;20114;-71
2021/06/04 03:41:37;;;;;;;17.05;15.63;;;20.80;99.90;;;;;;2066091;28;20027;-71
2021/06/04 03:42:39;;;;;;;19.08;17.17;;;20.80;99.90;;;;;;2066251;28;20073;-71
2021/06/04 03:43:40;;;;;;;17.92;16.27;;;20.80;99.90;;;;;;2066238;28;20035;-71
2021/06/04 03:44:43;;;;;;;19.15;17.15;;;20.80;99.90;;;;;;2066325;28;20137;-71
2021/06/04 03:45:45;;;;;;;18.50;16.75;;;20.80;99.90;;;;;;2066102;28;20038;-71
2021/06/04 03:46:46;;;;;;;20.27;17.98;;;20.80;99.90;;;;;;2066376;28;20019;-71
2021/06/04 03:47:46;;;;;;;18.00;16.48;;;20.80;99.90;;;;;;2066248;28;20517;-71
2021/06/04 03:48:47;;;;;;;20.23;18.23;;;20.80;99.90;;;;;;2073663;28;20029;-71
2021/06/04 03:49:48;;;;;;;18.70;16.83;;;20.80;99.90;;;;;;2073327;28;20026;-71
2021/06/04 03:50:52;;;;;;;16.05;14.60;;;20.80;99.90;;;;;;2064664;28;20030;-71
2021/06/04 03:51:55;;;;;;;16.27;14.57;;;20.80;99.90;;;;;;2065370;28;20073;-71
2021/06/04 03:52:55;;;;;;;16.58;14.88;;;20.80;99.90;;;;;;2066202;28;20110;-71
2021/06/04 03:53:56;;;;;;;18.88;16.38;;;20.80;99.90;;;;;;2073434;28;20033;-71
2021/06/04 03:54:59;;;;;;;17.50;15.95;;;20.80;99.90;;;;;;2073850;28;20034;-71
2021/06/04 03:56:00;;;;;;;17.00;15.38;;;20.80;99.90;;;;;;2074561;28;20026;-70
2021/06/04 03:57:03;;;;;;;17.27;15.73;;;20.80;99.90;;;;;;2075661;28;20413;-70
2021/06/04 03:58:04;;;;;;;20.60;17.17;;;20.80;99.90;;;;;;2067518;28;20522;-71
2021/06/04 03:59:06;;;;;;;18.02;16.23;;;20.80;99.90;;;;;;2079053;28;20417;-71
2021/06/04 04:00:17;;;;;;;18.67;16.98;;;20.80;99.90;;;;;;2073492;28;20058;-71
2021/06/04 04:01:37;;;;;;;19.30;17.27;;;20.80;99.90;;;;;;2065943;28;20032;-71
2021/06/04 04:02:37;;;;;;;18.13;16.23;;;20.80;99.90;;;;;;2065075;28;20121;-71
2021/06/04 04:03:39;;;;;;;18.08;16.38;;;20.80;99.90;;;;;;2066089;28;20036;-71
2021/06/04 04:04:40;;;;;;;18.95;17.08;;;20.80;99.90;;;;;;2066072;28;20073;-70
2021/06/04 04:05:41;;;;;;;18.50;16.58;;;20.80;99.90;;;;;;2064696;28;20026;-70
2021/06/04 04:06:42;;;;;;;19.30;17.40;;;20.80;99.90;;;;;;2068719;28;20081;-70
2021/06/04 04:07:43;;;;;;;19.02;17.23;;;20.80;99.90;;;;;;2081267;28;20057;-70
2021/06/04 04:08:45;;;;;;;19.08;17.10;;;20.80;99.90;;;;;;2066379;28;20471;-71
2021/06/04 04:09:45;;;;;;;19.13;17.33;;;20.80;99.90;;;;;;2073530;28;20026;-71
2021/06/04 04:10:46;;;;;;;19.45;17.67;;;20.80;99.90;;;;;;2065265;28;20387;-71
2021/06/04 04:11:51;;;;;;;19.08;17.35;;;20.80;99.90;;;;;;2065400;28;20081;-71
2021/06/04 04:12:52;;;;;;;20.42;18.50;;;20.80;99.90;;;;;;2065650;28;20018;-71
2021/06/04 04:13:53;;;;;;;19.38;17.45;;;20.80;99.90;;;;;;2066267;28;20025;-71
2021/06/04 04:14:54;;;;;;;22.17;19.88;;;20.80;99.90;;;;;;2065781;28;20029;-71
2021/06/04 04:15:59;;;;;;;19.77;17.88;;;20.80;99.90;;;;;;2066297;28;20034;-71
2021/06/04 04:17:02;;;;;;;22.92;18.45;;;20.80;99.90;;;;;;2065931;28;20462;-71
2021/06/04 04:18:03;;;;;;;19.63;17.77;;;20.80;99.90;;;;;;2065178;28;20058;-71
2021/06/04 04:19:05;;;;;;;21.00;17.77;;;20.80;99.90;;;;;;2065894;28;20038;-71
2021/06/04 04:20:06;;;;;;;17.48;15.90;;;20.80;99.90;;;;;;2073390;28;20014;-71
2021/06/04 04:21:10;;;;;;;16.50;14.90;;;20.90;99.90;;;;;;2073326;28;20033;-71
2021/06/04 04:22:11;;;;;;;18.70;16.35;;;20.80;99.90;;;;;;2065771;28;20034;-70
2021/06/04 04:23:15;;;;;;;18.67;16.88;;;20.90;99.90;;;;;;2065676;28;20029;-70
2021/06/04 04:24:25;;;;;;;17.48;15.88;;;20.80;99.90;;;;;;2066106;28;20108;-71
2021/06/04 04:25:30;;;;;;;16.40;14.82;;;20.80;99.90;;;;;;2065986;28;20129;-71
2021/06/04 04:26:34;;;;;;;18.02;16.33;;;20.80;99.90;;;;;;2065558;28;20121;-71
2021/06/04 04:27:35;;;;;;;17.10;15.57;;;20.80;99.90;;;;;;2065516;28;20058;-71
2021/06/04 04:28:40;;;;;;;16.00;14.50;;;20.80;99.90;;;;;;2066071;28;20031;-71
2021/06/04 04:29:41;;;;;;;17.35;15.65;;;20.80;99.90;;;;;;2077064;28;20452;-71
2021/06/04 04:30:41;;;;;;;17.50;15.63;;;20.80;99.90;;;;;;2081762;28;20026;-71
2021/06/04 04:31:47;;;;;;;19.20;17.30;;;20.80;99.90;;;;;;2065593;28;20037;-71
2021/06/04 04:32:48;;;;;;;16.70;15.20;;;20.80;99.90;;;;;;2065782;28;20026;-71
2021/06/04 04:33:49;;;;;;;17.55;15.85;;;20.80;99.90;;;;;;2065821;28;20058;-71
2021/06/04 04:34:50;;;;;;;18.80;16.75;;;20.80;99.90;;;;;;2065978;28;20093;-71
2021/06/04 04:35:51;;;;;;;15.95;14.38;;;20.80;99.90;;;;;;2065765;28;20034;-71
2021/06/04 04:36:55;;;;;;;18.02;15.82;;;20.90;99.90;;;;;;2066020;28;20022;-71
2021/06/04 04:37:56;;;;;;;15.13;13.63;;;20.90;99.90;;;;;;2072960;28;20038;-71
2021/06/04 04:38:57;;;;;;;14.38;12.98;;;20.90;99.90;;;;;;2073406;28;20030;-71
2021/06/04 04:39:57;;;;;;;16.88;15.27;;;20.90;99.90;;;;;;2065697;28;20023;-71
2021/06/04 04:41:01;;;;;;;15.00;13.68;;;20.90;99.90;;;;;;2065876;28;20023;-71
2021/06/04 04:42:06;;;;;;;15.98;14.50;;;20.90;99.90;;;;;;2065668;28;20018;-71
2021/06/04 04:43:09;;;;;;;16.08;14.68;;;20.90;99.90;;;;;;2065780;28;20443;-71
2021/06/04 04:44:10;;;;;;;16.70;15.23;;;20.90;99.90;;;;;;2065648;28;20045;-71
2021/06/04 04:45:16;;;;;;;17.90;16.05;;;20.90;99.90;;;;;;2065848;28;20028;-71
2021/06/04 04:46:19;;;;;;;18.95;16.85;;;20.90;99.90;;;;;;2072201;28;20030;-71
2021/06/04 04:47:22;;;;;;;21.08;17.27;;;20.90;99.90;;;;;;2073041;28;20022;-71
2021/06/04 04:48:23;;;;;;;16.42;14.95;;;20.90;99.90;;;;;;2065548;28;20512;-71
2021/06/04 04:49:24;;;;;;;15.95;14.52;;;20.90;99.90;;;;;;2065830;28;20022;-71
2021/06/04 04:50:26;;;;;;;19.55;17.67;;;20.90;99.90;;;;;;2065253;28;20471;-71
2021/06/04 04:51:29;;;;;;;19.73;17.77;;;20.90;99.90;;;;;;2065913;28;20054;-71
2021/06/04 04:52:30;;;;;;;19.08;17.30;;;20.90;99.90;;;;;;2065358;28;20173;-71
2021/06/04 04:53:31;;;;;;;19.58;17.67;;;21.00;99.90;;;;;;2065846;28;20027;-71
2021/06/04 04:54:31;;;;;;;17.88;16.17;;;21.00;99.90;;;;;;2065565;28;20529;-71
2021/06/04 04:55:35;;;;;;;18.92;17.02;;;21.00;99.90;;;;;;2075169;28;20427;-71
2021/06/04 04:56:36;;;;;;;16.38;14.88;;;21.00;99.90;;;;;;2080624;28;20100;-71
2021/06/04 04:57:37;;;;;;;18.10;16.42;;;21.00;99.90;;;;;;2065847;28;20019;-71
2021/06/04 04:58:38;;;;;;;16.63;14.30;;;21.00;99.90;;;;;;2064722;28;20030;-71
2021/06/04 04:59:39;;;;;;;17.08;15.57;;;21.00;99.90;;;;;;2056910;28;20015;-71
2021/06/04 05:00:42;;;;;;;16.23;14.52;;;21.10;99.90;;;;;;2064899;28;20113;-71
2021/06/04 05:01:43;;;;;;;18.98;17.27;;;21.10;99.90;;;;;;2065515;28;20089;-71
2021/06/04 05:02:43;;;;;;;17.90;16.23;;;21.10;99.90;;;;;;2065002;28;20030;-71
2021/06/04 05:03:44;;;;;;;17.20;15.50;;;21.10;99.90;;;;;;2065304;28;20077;-71
2021/06/04 05:04:45;;;;;;;18.88;17.27;;;21.10;99.90;;;;;;2065562;28;20130;-71
2021/06/04 05:05:47;;;;;;;18.40;16.73;;;21.10;99.90;;;;;;2063361;28;20033;-71
2021/06/04 05:06:49;;;;;;;16.52;14.93;;;21.10;99.90;;;;;;2065685;28;20026;-71
2021/06/04 05:07:50;;;;;;;17.20;15.30;;;21.20;99.90;;;;;;2073118;28;20057;-71
2021/06/04 05:08:51;;;;;;;17.65;16.15;;;21.20;99.90;;;;;;2077364;28;20025;-71
2021/06/04 05:09:52;;;;;;;18.25;16.48;;;21.20;99.90;;;;;;2081021;28;20498;-71
2021/06/04 05:10:52;;;;;;;16.10;14.70;;;21.20;99.90;;;;;;2065809;28;20022;-71
2021/06/04 05:11:53;;;;;;;18.90;17.17;;;21.20;99.90;;;;;;2064451;28;20409;-71
2021/06/04 05:12:53;;;;;;;17.45;15.95;;;21.20;99.90;;;;;;2064762;28;20030;-71
2021/06/04 05:13:54;;;;;;;16.45;14.80;;;21.20;99.90;;;;;;2065414;28;20382;-71
2021/06/04 05:14:55;;;;;;;16.73;15.23;;;21.30;99.90;;;;;;2065665;28;20101;-71
2021/06/04 05:15:55;;;;;;;17.00;15.48;;;21.30;99.90;;;;;;2068552;28;20018;-71
2021/06/04 05:16:56;;;;;;;17.05;15.45;;;21.30;99.90;;;;;;2069566;28;20022;-71
2021/06/04 05:17:57;;;;;;;16.48;14.98;;;21.30;99.90;;;;;;2065514;28;20062;-71
2021/06/04 05:18:58;;;;;;;19.17;16.50;;;21.30;99.90;;;;;;2080969;28;20025;-71
2021/06/04 05:19:58;;;;;;;19.70;15.15;;;21.40;99.90;;;;;;2081129;28;20018;-71
2021/06/04 05:21:00;;;;;;;17.88;16.23;;;21.40;99.90;;;;;;2065717;28;20018;-71
2021/06/04 05:22:00;;;;;;;20.33;18.50;;;21.40;99.90;;;;;;2065432;28;20050;-71
2021/06/04 05:23:03;;;;;;;19.90;17.67;;;21.40;99.90;;;;;;2065456;28;20537;-71
2021/06/04 05:24:06;;;;;;;21.05;18.85;;;21.50;99.90;;;;;;2065072;28;20042;-71
2021/06/04 05:25:10;;;;;;;19.15;17.33;;;21.50;99.90;;;;;;2064972;28;20018;-71
2021/06/04 05:26:12;;;;;;;20.02;18.17;;;21.50;99.90;;;;;;2065385;28;20065;-71
2021/06/04 05:27:13;;;;;;;16.88;15.35;;;21.50;99.90;;;;;;2073100;28;20088;-71
2021/06/04 05:28:16;;;;;;;19.35;17.33;;;21.60;99.90;;;;;;2076632;28;20026;-71
2021/06/04 05:29:17;;;;;;;18.75;17.05;;;21.60;99.90;;;;;;2065652;28;20022;-71
2021/06/04 05:30:24;;;;;;;16.25;14.45;;;21.70;99.90;;;;;;2065322;28;20102;-71
2021/06/04 05:31:25;;;;;;;18.00;15.50;;;21.70;99.90;;;;;;2065377;28;20030;-71
2021/06/04 05:32:26;;;;;;;18.70;17.02;;;21.70;99.90;;;;;;2056534;28;20030;-71
2021/06/04 05:33:32;;;;;;;19.42;17.52;;;21.70;99.90;;;;;;2064628;28;20023;-71
2021/06/04 05:34:32;;;;;;;18.30;16.42;;;21.80;99.90;;;;;;2065181;28;20113;-71